Brampton, Canada
Current Conditions -  °F | °C
As of 5:00 AM on Saturday 29 Nov 2014 (Local Time) from CYYZ Reporting Station
Overcast Overcast  
Wind Chill: 22°   Ceiling: 1500
Heat Index: 28°   Visibility: 15mi
Dew Point: 23°   Wind: 6mph
Humidity: 80%   Direction: 160°SSE
Pressure: 30.12"   Gusts: NA
Location:  43.68°N, 79.76°W
Report Text: CYYZ 291000Z 16005KT 15SM OVC015 M02/M05 A3012 RMK ST8 SLP208
Loading
Personal Weather Stations






























Interactive Weather Map New forecast layout! Learn more

10-Day Weather Forecast

Advertisements
Track Severe Weather on mobile